EPSY

Szczytno-Szymany International Airport

Poland
METAR EPSY 251830Z VRB03KT CAVOK 06/03 Q1033
Observed Flight Rules
Sep-25 @ 18:30 UTC (32 minutes ago) Visual Flight Rules
Wind Visibility Clouds
Variable at 3 knots 10,000+ meters
  • Clear skies
Temperatures Readings
Current 6°C / 43°F
Dewpoint 3°C / 37°F
Humidity 81%
Altimeter 30.5" Hg
Pressure 1033 hPa
Elevation 141
METAR EPSY 251830Z VRB03KT CAVOK 06/03 Q1033
Observed Flight Rules
Sep-25 @ 18:30 UTC
(32 minutes ago)
VFR
Wind Visibility
Variable at 3 knots 10,000+ meters
Clouds
  • Clear skies
Temperature Dewpoint
6°C / 43°F 3°C / 37°F
Humidity Altimeter Pressure
81% 30.5" Hg 1033 hPa